sensor_id;sensor_type;location;lat;lon;timestamp;P1;durP1;ratioP1;P2;durP2;ratioP2
8100;SDS011;4093;53.470;9.832;2023-05-07T00:01:21;16.03;;;13.80;;
8100;SDS011;4093;53.470;9.832;2023-05-07T00:03:49;15.33;;;13.30;;
8100;SDS011;4093;53.470;9.832;2023-05-07T00:06:16;15.53;;;11.77;;
8100;SDS011;4093;53.470;9.832;2023-05-07T00:08:45;16.10;;;11.93;;
8100;SDS011;4093;53.470;9.832;2023-05-07T00:11:14;12.87;;;11.23;;
8100;SDS011;4093;53.470;9.832;2023-05-07T00:13:42;13.87;;;10.67;;
8100;SDS011;4093;53.470;9.832;2023-05-07T00:16:09;12.23;;;10.03;;
8100;SDS011;4093;53.470;9.832;2023-05-07T00:18:37;12.93;;;10.37;;
8100;SDS011;4093;53.470;9.832;2023-05-07T00:21:05;13.17;;;10.27;;
8100;SDS011;4093;53.470;9.832;2023-05-07T00:23:33;12.57;;;10.60;;
8100;SDS011;4093;53.470;9.832;2023-05-07T00:26:00;13.40;;;11.30;;
8100;SDS011;4093;53.470;9.832;2023-05-07T00:28:29;12.27;;;10.70;;
8100;SDS011;4093;53.470;9.832;2023-05-07T00:30:57;12.70;;;10.37;;
8100;SDS011;4093;53.470;9.832;2023-05-07T00:33:25;13.90;;;10.53;;
8100;SDS011;4093;53.470;9.832;2023-05-07T00:35:54;13.07;;;10.60;;
8100;SDS011;4093;53.470;9.832;2023-05-07T00:38:21;13.03;;;10.27;;
8100;SDS011;4093;53.470;9.832;2023-05-07T00:40:49;12.30;;;10.87;;
8100;SDS011;4093;53.470;9.832;2023-05-07T00:43:17;12.90;;;10.00;;
8100;SDS011;4093;53.470;9.832;2023-05-07T00:45:46;12.93;;;9.97;;
8100;SDS011;4093;53.470;9.832;2023-05-07T00:48:14;13.70;;;10.47;;
8100;SDS011;4093;53.470;9.832;2023-05-07T00:50:42;13.13;;;9.50;;
8100;SDS011;4093;53.470;9.832;2023-05-07T00:53:11;10.90;;;9.63;;
8100;SDS011;4093;53.470;9.832;2023-05-07T00:55:39;11.47;;;9.50;;
8100;SDS011;4093;53.470;9.832;2023-05-07T00:58:07;12.63;;;9.30;;
8100;SDS011;4093;53.470;9.832;2023-05-07T01:00:35;11.90;;;9.40;;
8100;SDS011;4093;53.470;9.832;2023-05-07T01:03:04;11.17;;;8.73;;
8100;SDS011;4093;53.470;9.832;2023-05-07T01:05:33;10.97;;;9.00;;
8100;SDS011;4093;53.470;9.832;2023-05-07T01:08:01;11.00;;;8.17;;
8100;SDS011;4093;53.470;9.832;2023-05-07T01:10:31;9.90;;;8.70;;
8100;SDS011;4093;53.470;9.832;2023-05-07T01:12:59;10.70;;;9.00;;
8100;SDS011;4093;53.470;9.832;2023-05-07T01:15:27;11.57;;;9.13;;
8100;SDS011;4093;53.470;9.832;2023-05-07T01:17:55;9.63;;;8.47;;
8100;SDS011;4093;53.470;9.832;2023-05-07T01:20:25;9.63;;;7.80;;
8100;SDS011;4093;53.470;9.832;2023-05-07T01:22:55;9.63;;;8.57;;
8100;SDS011;4093;53.470;9.832;2023-05-07T01:25:24;9.20;;;7.70;;
8100;SDS011;4093;53.470;9.832;2023-05-07T01:27:52;10.53;;;9.27;;
8100;SDS011;4093;53.470;9.832;2023-05-07T01:30:20;9.53;;;8.37;;
8100;SDS011;4093;53.470;9.832;2023-05-07T01:32:51;9.23;;;8.33;;
8100;SDS011;4093;53.470;9.832;2023-05-07T01:35:24;10.50;;;8.77;;
8100;SDS011;4093;53.470;9.832;2023-05-07T01:37:57;10.30;;;9.03;;
8100;SDS011;4093;53.470;9.832;2023-05-07T01:40:25;10.13;;;8.67;;
8100;SDS011;4093;53.470;9.832;2023-05-07T01:42:54;8.37;;;7.47;;
8100;SDS011;4093;53.470;9.832;2023-05-07T01:45:22;9.83;;;8.27;;
8100;SDS011;4093;53.470;9.832;2023-05-07T01:47:50;8.87;;;7.97;;
8100;SDS011;4093;53.470;9.832;2023-05-07T01:50:19;9.47;;;7.93;;
8100;SDS011;4093;53.470;9.832;2023-05-07T01:52:49;9.63;;;8.30;;
8100;SDS011;4093;53.470;9.832;2023-05-07T01:55:19;8.53;;;7.63;;
8100;SDS011;4093;53.470;9.832;2023-05-07T01:57:46;11.33;;;8.93;;
8100;SDS011;4093;53.470;9.832;2023-05-07T02:00:14;8.87;;;8.00;;
8100;SDS011;4093;53.470;9.832;2023-05-07T02:02:45;13.70;;;8.90;;
8100;SDS011;4093;53.470;9.832;2023-05-07T02:05:13;9.83;;;8.60;;
8100;SDS011;4093;53.470;9.832;2023-05-07T02:07:40;9.50;;;8.50;;
8100;SDS011;4093;53.470;9.832;2023-05-07T02:10:08;9.83;;;8.20;;
8100;SDS011;4093;53.470;9.832;2023-05-07T02:12:38;8.80;;;7.90;;
8100;SDS011;4093;53.470;9.832;2023-05-07T02:15:06;8.97;;;7.83;;
8100;SDS011;4093;53.470;9.832;2023-05-07T02:17:35;9.00;;;8.07;;
8100;SDS011;4093;53.470;9.832;2023-05-07T02:20:03;11.30;;;9.17;;
8100;SDS011;4093;53.470;9.832;2023-05-07T02:22:33;10.30;;;8.80;;
8100;SDS011;4093;53.470;9.832;2023-05-07T02:25:01;8.53;;;7.73;;
8100;SDS011;4093;53.470;9.832;2023-05-07T02:27:28;8.83;;;7.93;;
8100;SDS011;4093;53.470;9.832;2023-05-07T02:29:57;9.73;;;8.50;;
8100;SDS011;4093;53.470;9.832;2023-05-07T02:32:25;10.30;;;8.87;;
8100;SDS011;4093;53.470;9.832;2023-05-07T02:34:52;10.37;;;7.63;;
8100;SDS011;4093;53.470;9.832;2023-05-07T02:37:20;10.63;;;9.53;;
8100;SDS011;4093;53.470;9.832;2023-05-07T02:39:48;11.77;;;9.17;;
8100;SDS011;4093;53.470;9.832;2023-05-07T02:42:16;8.60;;;7.70;;
8100;SDS011;4093;53.470;9.832;2023-05-07T02:44:43;10.60;;;8.43;;
8100;SDS011;4093;53.470;9.832;2023-05-07T02:47:12;9.73;;;8.70;;
8100;SDS011;4093;53.470;9.832;2023-05-07T02:49:40;12.30;;;9.83;;
8100;SDS011;4093;53.470;9.832;2023-05-07T02:52:08;10.73;;;9.63;;
8100;SDS011;4093;53.470;9.832;2023-05-07T02:54:36;11.13;;;9.90;;
8100;SDS011;4093;53.470;9.832;2023-05-07T02:57:04;9.87;;;8.87;;
8100;SDS011;4093;53.470;9.832;2023-05-07T02:59:31;12.03;;;9.30;;
8100;SDS011;4093;53.470;9.832;2023-05-07T03:01:59;10.27;;;9.23;;
8100;SDS011;4093;53.470;9.832;2023-05-07T03:04:28;10.00;;;9.00;;
8100;SDS011;4093;53.470;9.832;2023-05-07T03:06:56;10.00;;;8.57;;
8100;SDS011;4093;53.470;9.832;2023-05-07T03:09:24;10.87;;;9.10;;
8100;SDS011;4093;53.470;9.832;2023-05-07T03:11:51;10.03;;;9.00;;
8100;SDS011;4093;53.470;9.832;2023-05-07T03:14:19;10.37;;;8.83;;
8100;SDS011;4093;53.470;9.832;2023-05-07T03:16:47;10.87;;;9.40;;
8100;SDS011;4093;53.470;9.832;2023-05-07T03:19:14;12.60;;;10.10;;
8100;SDS011;4093;53.470;9.832;2023-05-07T03:21:43;10.50;;;9.40;;
8100;SDS011;4093;53.470;9.832;2023-05-07T03:24:11;11.80;;;9.47;;
8100;SDS011;4093;53.470;9.832;2023-05-07T03:26:39;11.80;;;9.57;;
8100;SDS011;4093;53.470;9.832;2023-05-07T03:29:06;10.23;;;9.17;;
8100;SDS011;4093;53.470;9.832;2023-05-07T03:31:34;11.83;;;10.43;;
8100;SDS011;4093;53.470;9.832;2023-05-07T03:34:02;11.53;;;10.27;;
8100;SDS011;4093;53.470;9.832;2023-05-07T03:36:29;13.10;;;10.63;;
8100;SDS011;4093;53.470;9.832;2023-05-07T03:38:58;9.97;;;8.80;;
8100;SDS011;4093;53.470;9.832;2023-05-07T03:41:26;11.80;;;9.60;;
8100;SDS011;4093;53.470;9.832;2023-05-07T03:43:55;11.60;;;9.10;;
8100;SDS011;4093;53.470;9.832;2023-05-07T03:46:23;11.03;;;9.70;;
8100;SDS011;4093;53.470;9.832;2023-05-07T03:48:52;14.40;;;10.40;;
8100;SDS011;4093;53.470;9.832;2023-05-07T03:51:20;13.17;;;10.47;;
8100;SDS011;4093;53.470;9.832;2023-05-07T03:53:47;12.07;;;10.23;;
8100;SDS011;4093;53.470;9.832;2023-05-07T03:56:16;12.00;;;10.10;;
8100;SDS011;4093;53.470;9.832;2023-05-07T03:58:45;12.83;;;10.73;;
8100;SDS011;4093;53.470;9.832;2023-05-07T04:01:12;11.97;;;10.40;;
8100;SDS011;4093;53.470;9.832;2023-05-07T04:03:40;11.43;;;9.93;;
8100;SDS011;4093;53.470;9.832;2023-05-07T04:06:08;11.77;;;10.47;;
8100;SDS011;4093;53.470;9.832;2023-05-07T04:08:35;10.50;;;9.30;;
8100;SDS011;4093;53.470;9.832;2023-05-07T04:11:03;11.57;;;9.47;;
8100;SDS011;4093;53.470;9.832;2023-05-07T04:13:33;12.53;;;10.03;;
8100;SDS011;4093;53.470;9.832;2023-05-07T04:16:01;13.87;;;10.43;;
8100;SDS011;4093;53.470;9.832;2023-05-07T04:18:29;13.13;;;10.87;;
8100;SDS011;4093;53.470;9.832;2023-05-07T04:20:57;12.77;;;10.40;;
8100;SDS011;4093;53.470;9.832;2023-05-07T04:23:25;12.23;;;10.40;;
8100;SDS011;4093;53.470;9.832;2023-05-07T04:25:52;13.83;;;10.20;;
8100;SDS011;4093;53.470;9.832;2023-05-07T04:28:20;13.27;;;10.83;;
8100;SDS011;4093;53.470;9.832;2023-05-07T04:30:49;12.23;;;10.60;;
8100;SDS011;4093;53.470;9.832;2023-05-07T04:33:17;12.23;;;10.10;;
8100;SDS011;4093;53.470;9.832;2023-05-07T04:35:45;12.10;;;10.60;;
8100;SDS011;4093;53.470;9.832;2023-05-07T04:38:13;13.37;;;11.47;;
8100;SDS011;4093;53.470;9.832;2023-05-07T04:40:41;14.43;;;11.57;;
8100;SDS011;4093;53.470;9.832;2023-05-07T04:43:08;14.87;;;9.90;;
8100;SDS011;4093;53.470;9.832;2023-05-07T04:45:36;13.20;;;10.13;;
8100;SDS011;4093;53.470;9.832;2023-05-07T04:48:08;12.07;;;10.53;;
8100;SDS011;4093;53.470;9.832;2023-05-07T04:50:36;14.90;;;10.93;;
8100;SDS011;4093;53.470;9.832;2023-05-07T04:53:03;11.23;;;9.70;;
8100;SDS011;4093;53.470;9.832;2023-05-07T04:55:31;12.00;;;9.27;;
8100;SDS011;4093;53.470;9.832;2023-05-07T04:57:59;11.77;;;10.00;;
8100;SDS011;4093;53.470;9.832;2023-05-07T05:00:28;14.97;;;10.43;;
8100;SDS011;4093;53.470;9.832;2023-05-07T05:02:55;11.37;;;10.10;;
8100;SDS011;4093;53.470;9.832;2023-05-07T05:05:24;12.00;;;10.00;;
8100;SDS011;4093;53.470;9.832;2023-05-07T05:07:52;11.97;;;10.07;;
8100;SDS011;4093;53.470;9.832;2023-05-07T05:10:21;12.13;;;10.30;;
8100;SDS011;4093;53.470;9.832;2023-05-07T05:12:50;12.90;;;10.27;;
8100;SDS011;4093;53.470;9.832;2023-05-07T05:15:18;12.50;;;10.17;;
8100;SDS011;4093;53.470;9.832;2023-05-07T05:17:45;11.77;;;10.37;;
8100;SDS011;4093;53.470;9.832;2023-05-07T05:20:13;12.43;;;10.50;;
8100;SDS011;4093;53.470;9.832;2023-05-07T05:22:42;12.70;;;11.03;;
8100;SDS011;4093;53.470;9.832;2023-05-07T05:25:10;13.00;;;10.53;;
8100;SDS011;4093;53.470;9.832;2023-05-07T05:27:38;12.43;;;10.57;;
8100;SDS011;4093;53.470;9.832;2023-05-07T05:30:06;11.93;;;10.40;;
8100;SDS011;4093;53.470;9.832;2023-05-07T05:32:35;13.07;;;11.40;;
8100;SDS011;4093;53.470;9.832;2023-05-07T05:35:03;12.77;;;10.10;;
8100;SDS011;4093;53.470;9.832;2023-05-07T05:37:31;13.27;;;10.97;;
8100;SDS011;4093;53.470;9.832;2023-05-07T05:40:01;14.07;;;10.97;;
8100;SDS011;4093;53.470;9.832;2023-05-07T05:42:30;13.03;;;11.30;;
8100;SDS011;4093;53.470;9.832;2023-05-07T05:44:57;12.33;;;10.60;;
8100;SDS011;4093;53.470;9.832;2023-05-07T05:47:25;14.50;;;11.47;;
8100;SDS011;4093;53.470;9.832;2023-05-07T05:49:53;12.40;;;10.20;;
8100;SDS011;4093;53.470;9.832;2023-05-07T05:52:21;12.27;;;10.17;;
8100;SDS011;4093;53.470;9.832;2023-05-07T05:54:49;15.00;;;10.67;;
8100;SDS011;4093;53.470;9.832;2023-05-07T05:57:18;13.53;;;10.33;;
8100;SDS011;4093;53.470;9.832;2023-05-07T05:59:46;13.37;;;10.80;;
8100;SDS011;4093;53.470;9.832;2023-05-07T06:02:14;14.27;;;10.57;;
8100;SDS011;4093;53.470;9.832;2023-05-07T06:04:42;13.70;;;10.77;;
8100;SDS011;4093;53.470;9.832;2023-05-07T06:07:09;14.80;;;10.77;;
8100;SDS011;4093;53.470;9.832;2023-05-07T06:09:37;11.97;;;10.17;;
8100;SDS011;4093;53.470;9.832;2023-05-07T06:12:05;12.77;;;10.27;;
8100;SDS011;4093;53.470;9.832;2023-05-07T06:14:34;12.50;;;9.90;;
8100;SDS011;4093;53.470;9.832;2023-05-07T06:17:02;13.07;;;10.37;;
8100;SDS011;4093;53.470;9.832;2023-05-07T06:19:30;12.03;;;9.73;;
8100;SDS011;4093;53.470;9.832;2023-05-07T06:21:57;13.17;;;9.97;;
8100;SDS011;4093;53.470;9.832;2023-05-07T06:24:27;11.23;;;9.07;;
8100;SDS011;4093;53.470;9.832;2023-05-07T06:26:55;10.90;;;9.07;;
8100;SDS011;4093;53.470;9.832;2023-05-07T06:29:24;10.80;;;9.33;;
8100;SDS011;4093;53.470;9.832;2023-05-07T06:31:54;13.27;;;9.07;;
8100;SDS011;4093;53.470;9.832;2023-05-07T06:34:22;10.17;;;8.50;;
8100;SDS011;4093;53.470;9.832;2023-05-07T06:36:49;10.43;;;8.90;;
8100;SDS011;4093;53.470;9.832;2023-05-07T06:39:17;10.23;;;9.13;;
8100;SDS011;4093;53.470;9.832;2023-05-07T06:41:45;11.87;;;9.10;;
8100;SDS011;4093;53.470;9.832;2023-05-07T06:44:12;11.17;;;9.27;;
8100;SDS011;4093;53.470;9.832;2023-05-07T06:46:41;11.40;;;9.73;;
8100;SDS011;4093;53.470;9.832;2023-05-07T06:49:10;13.13;;;9.27;;
8100;SDS011;4093;53.470;9.832;2023-05-07T06:51:38;14.17;;;9.23;;
8100;SDS011;4093;53.470;9.832;2023-05-07T06:54:06;10.27;;;8.87;;
8100;SDS011;4093;53.470;9.832;2023-05-07T06:56:34;11.70;;;8.83;;
8100;SDS011;4093;53.470;9.832;2023-05-07T06:59:02;11.17;;;8.73;;
8100;SDS011;4093;53.470;9.832;2023-05-07T07:01:30;12.13;;;8.57;;
8100;SDS011;4093;53.470;9.832;2023-05-07T07:03:58;11.93;;;8.30;;
8100;SDS011;4093;53.470;9.832;2023-05-07T07:06:28;11.80;;;8.70;;
8100;SDS011;4093;53.470;9.832;2023-05-07T07:08:58;11.43;;;8.97;;
8100;SDS011;4093;53.470;9.832;2023-05-07T07:11:26;10.93;;;9.03;;
8100;SDS011;4093;53.470;9.832;2023-05-07T07:13:53;11.23;;;9.57;;
8100;SDS011;4093;53.470;9.832;2023-05-07T07:16:21;9.73;;;7.63;;
8100;SDS011;4093;53.470;9.832;2023-05-07T07:18:49;10.50;;;9.03;;
8100;SDS011;4093;53.470;9.832;2023-05-07T07:21:17;9.33;;;8.30;;
8100;SDS011;4093;53.470;9.832;2023-05-07T07:23:46;11.27;;;8.40;;
8100;SDS011;4093;53.470;9.832;2023-05-07T07:26:13;9.97;;;7.80;;
8100;SDS011;4093;53.470;9.832;2023-05-07T07:28:42;10.33;;;8.37;;
8100;SDS011;4093;53.470;9.832;2023-05-07T07:31:11;11.27;;;8.60;;
8100;SDS011;4093;53.470;9.832;2023-05-07T07:33:38;12.07;;;8.37;;
8100;SDS011;4093;53.470;9.832;2023-05-07T07:36:06;9.70;;;7.53;;
8100;SDS011;4093;53.470;9.832;2023-05-07T07:38:34;13.93;;;8.73;;
8100;SDS011;4093;53.470;9.832;2023-05-07T07:41:04;10.80;;;9.10;;
8100;SDS011;4093;53.470;9.832;2023-05-07T07:43:31;11.43;;;7.47;;
8100;SDS011;4093;53.470;9.832;2023-05-07T07:45:59;8.43;;;7.63;;
8100;SDS011;4093;53.470;9.832;2023-05-07T07:48:27;9.70;;;8.07;;
8100;SDS011;4093;53.470;9.832;2023-05-07T07:50:55;8.07;;;7.27;;
8100;SDS011;4093;53.470;9.832;2023-05-07T07:53:23;8.40;;;7.10;;
8100;SDS011;4093;53.470;9.832;2023-05-07T07:55:51;9.60;;;7.80;;
8100;SDS011;4093;53.470;9.832;2023-05-07T07:58:25;9.07;;;7.87;;
8100;SDS011;4093;53.470;9.832;2023-05-07T08:00:53;9.33;;;7.27;;
8100;SDS011;4093;53.470;9.832;2023-05-07T08:03:22;12.40;;;7.27;;
8100;SDS011;4093;53.470;9.832;2023-05-07T08:05:55;9.37;;;7.13;;
8100;SDS011;4093;53.470;9.832;2023-05-07T08:08:31;7.97;;;7.17;;
8100;SDS011;4093;53.470;9.832;2023-05-07T08:10:59;8.83;;;7.47;;
8100;SDS011;4093;53.470;9.832;2023-05-07T08:13:28;9.23;;;7.60;;
8100;SDS011;4093;53.470;9.832;2023-05-07T08:15:56;10.03;;;7.30;;
8100;SDS011;4093;53.470;9.832;2023-05-07T08:18:28;9.00;;;7.37;;
8100;SDS011;4093;53.470;9.832;2023-05-07T08:20:55;9.90;;;7.33;;
8100;SDS011;4093;53.470;9.832;2023-05-07T08:23:23;9.33;;;6.33;;
8100;SDS011;4093;53.470;9.832;2023-05-07T08:25:51;8.17;;;7.13;;
8100;SDS011;4093;53.470;9.832;2023-05-07T08:28:18;8.30;;;7.40;;
8100;SDS011;4093;53.470;9.832;2023-05-07T08:30:49;8.57;;;7.40;;
8100;SDS011;4093;53.470;9.832;2023-05-07T08:33:16;8.53;;;7.53;;
8100;SDS011;4093;53.470;9.832;2023-05-07T08:35:44;9.90;;;7.67;;
8100;SDS011;4093;53.470;9.832;2023-05-07T08:38:11;8.17;;;7.10;;
8100;SDS011;4093;53.470;9.832;2023-05-07T08:40:39;8.00;;;6.97;;
8100;SDS011;4093;53.470;9.832;2023-05-07T08:43:07;8.90;;;7.80;;
8100;SDS011;4093;53.470;9.832;2023-05-07T08:45:39;8.97;;;6.70;;
8100;SDS011;4093;53.470;9.832;2023-05-07T08:48:14;9.27;;;6.50;;
8100;SDS011;4093;53.470;9.832;2023-05-07T08:50:43;9.93;;;6.87;;
8100;SDS011;4093;53.470;9.832;2023-05-07T08:53:10;8.33;;;6.23;;
8100;SDS011;4093;53.470;9.832;2023-05-07T08:55:39;7.90;;;6.13;;
8100;SDS011;4093;53.470;9.832;2023-05-07T08:58:07;8.70;;;7.20;;
8100;SDS011;4093;53.470;9.832;2023-05-07T09:00:35;7.23;;;6.50;;
8100;SDS011;4093;53.470;9.832;2023-05-07T09:03:03;6.90;;;6.23;;
8100;SDS011;4093;53.470;9.832;2023-05-07T09:05:32;8.43;;;6.43;;
8100;SDS011;4093;53.470;9.832;2023-05-07T09:08:01;7.93;;;6.90;;
8100;SDS011;4093;53.470;9.832;2023-05-07T09:10:29;7.10;;;6.40;;
8100;SDS011;4093;53.470;9.832;2023-05-07T09:12:57;7.47;;;6.57;;
8100;SDS011;4093;53.470;9.832;2023-05-07T09:15:25;9.53;;;6.30;;
8100;SDS011;4093;53.470;9.832;2023-05-07T09:17:53;7.37;;;6.43;;
8100;SDS011;4093;53.470;9.832;2023-05-07T09:20:21;7.13;;;6.40;;
8100;SDS011;4093;53.470;9.832;2023-05-07T09:22:50;7.73;;;6.10;;
8100;SDS011;4093;53.470;9.832;2023-05-07T09:25:22;6.53;;;5.53;;
8100;SDS011;4093;53.470;9.832;2023-05-07T09:27:56;6.80;;;6.10;;
8100;SDS011;4093;53.470;9.832;2023-05-07T09:30:26;8.27;;;6.00;;
8100;SDS011;4093;53.470;9.832;2023-05-07T09:32:56;7.17;;;6.47;;
8100;SDS011;4093;53.470;9.832;2023-05-07T09:35:24;8.23;;;6.43;;
8100;SDS011;4093;53.470;9.832;2023-05-07T09:37:55;7.43;;;6.53;;
8100;SDS011;4093;53.470;9.832;2023-05-07T09:40:24;6.63;;;5.97;;
8100;SDS011;4093;53.470;9.832;2023-05-07T09:42:52;6.20;;;5.60;;
8100;SDS011;4093;53.470;9.832;2023-05-07T09:45:24;7.00;;;6.13;;
8100;SDS011;4093;53.470;9.832;2023-05-07T09:47:53;8.10;;;7.30;;
8100;SDS011;4093;53.470;9.832;2023-05-07T09:50:24;8.00;;;6.97;;
8100;SDS011;4093;53.470;9.832;2023-05-07T09:52:56;7.70;;;7.00;;
8100;SDS011;4093;53.470;9.832;2023-05-07T09:55:24;7.93;;;6.50;;
8100;SDS011;4093;53.470;9.832;2023-05-07T09:57:53;7.87;;;6.53;;
8100;SDS011;4093;53.470;9.832;2023-05-07T10:00:22;7.77;;;6.90;;
8100;SDS011;4093;53.470;9.832;2023-05-07T10:02:51;5.97;;;5.37;;
8100;SDS011;4093;53.470;9.832;2023-05-07T10:05:19;7.30;;;6.60;;
8100;SDS011;4093;53.470;9.832;2023-05-07T10:07:49;6.97;;;6.37;;
8100;SDS011;4093;53.470;9.832;2023-05-07T10:10:18;7.23;;;6.40;;
8100;SDS011;4093;53.470;9.832;2023-05-07T10:12:48;8.73;;;7.00;;
8100;SDS011;4093;53.470;9.832;2023-05-07T10:15:16;8.77;;;6.63;;
8100;SDS011;4093;53.470;9.832;2023-05-07T10:17:44;7.70;;;6.63;;
8100;SDS011;4093;53.470;9.832;2023-05-07T10:20:12;6.57;;;5.80;;
8100;SDS011;4093;53.470;9.832;2023-05-07T10:22:41;7.80;;;6.40;;
8100;SDS011;4093;53.470;9.832;2023-05-07T10:25:14;7.73;;;7.03;;
8100;SDS011;4093;53.470;9.832;2023-05-07T10:27:46;8.47;;;7.13;;
8100;SDS011;4093;53.470;9.832;2023-05-07T10:30:16;10.47;;;7.47;;
8100;SDS011;4093;53.470;9.832;2023-05-07T10:32:58;7.60;;;6.83;;
8100;SDS011;4093;53.470;9.832;2023-05-07T10:35:37;10.00;;;6.90;;
8100;SDS011;4093;53.470;9.832;2023-05-07T10:38:08;7.83;;;7.03;;
8100;SDS011;4093;53.470;9.832;2023-05-07T10:40:36;8.00;;;6.90;;
8100;SDS011;4093;53.470;9.832;2023-05-07T10:43:05;9.40;;;7.10;;
8100;SDS011;4093;53.470;9.832;2023-05-07T10:45:36;10.00;;;7.37;;
8100;SDS011;4093;53.470;9.832;2023-05-07T10:48:07;8.33;;;6.97;;
8100;SDS011;4093;53.470;9.832;2023-05-07T10:51:17;8.53;;;7.47;;
8100;SDS011;4093;53.470;9.832;2023-05-07T10:53:46;7.37;;;6.63;;
8100;SDS011;4093;53.470;9.832;2023-05-07T10:56:26;8.43;;;7.57;;
8100;SDS011;4093;53.470;9.832;2023-05-07T10:58:56;10.63;;;7.70;;
8100;SDS011;4093;53.470;9.832;2023-05-07T11:02:08;11.17;;;7.53;;
8100;SDS011;4093;53.470;9.832;2023-05-07T11:04:37;9.57;;;7.80;;
8100;SDS011;4093;53.470;9.832;2023-05-07T11:10:01;8.20;;;6.70;;
8100;SDS011;4093;53.470;9.832;2023-05-07T11:12:49;7.17;;;6.27;;
8100;SDS011;4093;53.470;9.832;2023-05-07T11:15:36;10.60;;;7.57;;
8100;SDS011;4093;53.470;9.832;2023-05-07T11:18:05;8.13;;;7.30;;
8100;SDS011;4093;53.470;9.832;2023-05-07T11:20:46;7.90;;;7.10;;
8100;SDS011;4093;53.470;9.832;2023-05-07T11:26:42;8.97;;;8.07;;
8100;SDS011;4093;53.470;9.832;2023-05-07T11:29:11;8.93;;;7.73;;
8100;SDS011;4093;53.470;9.832;2023-05-07T11:31:41;10.03;;;6.80;;
8100;SDS011;4093;53.470;9.832;2023-05-07T11:34:09;8.27;;;7.47;;
8100;SDS011;4093;53.470;9.832;2023-05-07T11:36:41;7.93;;;7.13;;
8100;SDS011;4093;53.470;9.832;2023-05-07T11:39:23;7.30;;;6.53;;
8100;SDS011;4093;53.470;9.832;2023-05-07T11:41:52;10.60;;;7.57;;
8100;SDS011;4093;53.470;9.832;2023-05-07T11:44:20;7.77;;;7.07;;
8100;SDS011;4093;53.470;9.832;2023-05-07T11:46:49;8.87;;;7.40;;
8100;SDS011;4093;53.470;9.832;2023-05-07T11:49:17;7.13;;;6.43;;
8100;SDS011;4093;53.470;9.832;2023-05-07T11:51:45;7.23;;;6.53;;
8100;SDS011;4093;53.470;9.832;2023-05-07T11:54:15;7.97;;;6.33;;
8100;SDS011;4093;53.470;9.832;2023-05-07T11:56:43;7.13;;;6.43;;
8100;SDS011;4093;53.470;9.832;2023-05-07T11:59:16;7.60;;;6.27;;
8100;SDS011;4093;53.470;9.832;2023-05-07T12:01:45;7.33;;;6.63;;
8100;SDS011;4093;53.470;9.832;2023-05-07T12:04:19;7.73;;;7.00;;
8100;SDS011;4093;53.470;9.832;2023-05-07T12:06:48;6.87;;;6.00;;
8100;SDS011;4093;53.470;9.832;2023-05-07T12:09:17;7.87;;;5.70;;
8100;SDS011;4093;53.470;9.832;2023-05-07T12:11:45;6.43;;;5.70;;
8100;SDS011;4093;53.470;9.832;2023-05-07T12:14:13;9.23;;;7.20;;
8100;SDS011;4093;53.470;9.832;2023-05-07T12:16:42;7.53;;;6.07;;
8100;SDS011;4093;53.470;9.832;2023-05-07T12:19:10;7.50;;;6.57;;
8100;SDS011;4093;53.470;9.832;2023-05-07T12:21:42;7.47;;;5.33;;
8100;SDS011;4093;53.470;9.832;2023-05-07T12:24:10;7.27;;;6.57;;
8100;SDS011;4093;53.470;9.832;2023-05-07T12:26:38;7.20;;;6.50;;
8100;SDS011;4093;53.470;9.832;2023-05-07T12:29:06;9.13;;;6.60;;
8100;SDS011;4093;53.470;9.832;2023-05-07T12:31:34;5.77;;;5.17;;
8100;SDS011;4093;53.470;9.832;2023-05-07T12:34:02;6.73;;;6.03;;
8100;SDS011;4093;53.470;9.832;2023-05-07T12:36:36;8.03;;;5.50;;
8100;SDS011;4093;53.470;9.832;2023-05-07T12:39:05;7.37;;;5.20;;
8100;SDS011;4093;53.470;9.832;2023-05-07T12:41:36;6.00;;;5.27;;
8100;SDS011;4093;53.470;9.832;2023-05-07T12:44:18;6.10;;;5.00;;
8100;SDS011;4093;53.470;9.832;2023-05-07T12:46:46;6.77;;;4.77;;
8100;SDS011;4093;53.470;9.832;2023-05-07T12:49:14;5.00;;;4.50;;
8100;SDS011;4093;53.470;9.832;2023-05-07T12:51:42;5.67;;;5.07;;
8100;SDS011;4093;53.470;9.832;2023-05-07T12:54:11;5.60;;;5.10;;
8100;SDS011;4093;53.470;9.832;2023-05-07T12:56:39;5.27;;;4.77;;
8100;SDS011;4093;53.470;9.832;2023-05-07T12:59:07;5.80;;;5.20;;
8100;SDS011;4093;53.470;9.832;2023-05-07T13:01:34;6.20;;;4.90;;
8100;SDS011;4093;53.470;9.832;2023-05-07T13:04:02;5.43;;;4.90;;
8100;SDS011;4093;53.470;9.832;2023-05-07T13:06:31;4.80;;;4.40;;
8100;SDS011;4093;53.470;9.832;2023-05-07T13:08:59;5.60;;;5.00;;
8100;SDS011;4093;53.470;9.832;2023-05-07T13:11:28;10.18;;;7.68;;
8100;SDS011;4093;53.470;9.832;2023-05-07T13:13:56;5.20;;;4.80;;
8100;SDS011;4093;53.470;9.832;2023-05-07T13:16:23;4.97;;;4.47;;
8100;SDS011;4093;53.470;9.832;2023-05-07T13:18:51;5.47;;;4.97;;
8100;SDS011;4093;53.470;9.832;2023-05-07T13:21:19;7.57;;;5.23;;
8100;SDS011;4093;53.470;9.832;2023-05-07T13:23:46;5.00;;;4.55;;
8100;SDS011;4093;53.470;9.832;2023-05-07T13:26:14;5.43;;;4.93;;
8100;SDS011;4093;53.470;9.832;2023-05-07T13:28:53;4.32;;;4.00;;
8100;SDS011;4093;53.470;9.832;2023-05-07T13:31:21;4.47;;;4.07;;
8100;SDS011;4093;53.470;9.832;2023-05-07T13:33:49;3.90;;;3.50;;
8100;SDS011;4093;53.470;9.832;2023-05-07T13:36:16;6.30;;;4.30;;
8100;SDS011;4093;53.470;9.832;2023-05-07T13:38:44;4.60;;;4.00;;
8100;SDS011;4093;53.470;9.832;2023-05-07T13:41:12;4.17;;;3.77;;
8100;SDS011;4093;53.470;9.832;2023-05-07T13:43:40;5.57;;;4.28;;
8100;SDS011;4093;53.470;9.832;2023-05-07T13:46:09;4.40;;;3.80;;
8100;SDS011;4093;53.470;9.832;2023-05-07T13:48:37;4.77;;;4.33;;
8100;SDS011;4093;53.470;9.832;2023-05-07T13:51:06;4.47;;;4.07;;
8100;SDS011;4093;53.470;9.832;2023-05-07T13:53:33;4.90;;;4.40;;
8100;SDS011;4093;53.470;9.832;2023-05-07T13:56:01;4.77;;;4.13;;
8100;SDS011;4093;53.470;9.832;2023-05-07T13:58:30;4.40;;;4.00;;
8100;SDS011;4093;53.470;9.832;2023-05-07T14:00:58;4.20;;;3.80;;
8100;SDS011;4093;53.470;9.832;2023-05-07T14:03:27;4.20;;;3.80;;
8100;SDS011;4093;53.470;9.832;2023-05-07T14:05:58;4.57;;;3.93;;
8100;SDS011;4093;53.470;9.832;2023-05-07T14:08:26;3.93;;;3.63;;
8100;SDS011;4093;53.470;9.832;2023-05-07T14:10:57;4.53;;;4.13;;
8100;SDS011;4093;53.470;9.832;2023-05-07T14:13:25;4.30;;;3.80;;
8100;SDS011;4093;53.470;9.832;2023-05-07T14:15:53;4.73;;;3.80;;
8100;SDS011;4093;53.470;9.832;2023-05-07T14:18:21;3.85;;;3.50;;
8100;SDS011;4093;53.470;9.832;2023-05-07T14:20:50;3.67;;;3.37;;
8100;SDS011;4093;53.470;9.832;2023-05-07T14:23:17;3.33;;;3.03;;
8100;SDS011;4093;53.470;9.832;2023-05-07T14:25:45;3.97;;;3.57;;
8100;SDS011;4093;53.470;9.832;2023-05-07T14:28:13;4.77;;;3.20;;
8100;SDS011;4093;53.470;9.832;2023-05-07T14:30:41;4.07;;;3.33;;
8100;SDS011;4093;53.470;9.832;2023-05-07T14:33:09;4.27;;;3.37;;
8100;SDS011;4093;53.470;9.832;2023-05-07T14:35:36;3.30;;;3.00;;
8100;SDS011;4093;53.470;9.832;2023-05-07T14:38:06;3.50;;;3.00;;
8100;SDS011;4093;53.470;9.832;2023-05-07T14:40:33;4.30;;;3.90;;
8100;SDS011;4093;53.470;9.832;2023-05-07T14:43:01;4.00;;;3.10;;
8100;SDS011;4093;53.470;9.832;2023-05-07T14:45:29;3.40;;;3.10;;
8100;SDS011;4093;53.470;9.832;2023-05-07T14:47:56;3.40;;;2.90;;
8100;SDS011;4093;53.470;9.832;2023-05-07T14:50:24;3.43;;;3.13;;
8100;SDS011;4093;53.470;9.832;2023-05-07T14:52:52;4.37;;;3.10;;
8100;SDS011;4093;53.470;9.832;2023-05-07T14:55:21;3.20;;;2.90;;
8100;SDS011;4093;53.470;9.832;2023-05-07T14:57:48;3.45;;;3.15;;
8100;SDS011;4093;53.470;9.832;2023-05-07T15:00:16;3.53;;;2.90;;
8100;SDS011;4093;53.470;9.832;2023-05-07T15:02:44;3.70;;;3.40;;
8100;SDS011;4093;53.470;9.832;2023-05-07T15:05:12;3.58;;;3.28;;
8100;SDS011;4093;53.470;9.832;2023-05-07T15:07:40;2.85;;;2.63;;
8100;SDS011;4093;53.470;9.832;2023-05-07T15:10:10;3.38;;;3.08;;
8100;SDS011;4093;53.470;9.832;2023-05-07T15:12:39;4.40;;;3.72;;
8100;SDS011;4093;53.470;9.832;2023-05-07T15:15:07;3.50;;;3.10;;
8100;SDS011;4093;53.470;9.832;2023-05-07T15:17:36;3.67;;;2.83;;
8100;SDS011;4093;53.470;9.832;2023-05-07T15:20:05;3.30;;;3.00;;
8100;SDS011;4093;53.470;9.832;2023-05-07T15:22:34;3.17;;;2.87;;